Butler, WI (53007)

6:50 PM CDT on September 02, 2015 (GMT -0500)
Hickory Knoll | | Change Station
CLOSE
Current Station
Personal Weather Station
Location: Brookfield, WI
Elevation: 778 ft
Nearby Weather Stations

Elev 778 ft 43.10 °N, 88.10 °W | Updated 3 seconds ago

Clear
Clear
84.2 °F
Feels Like 89 °F
N
2.2
Wind Variable Wind from NW
Gusts 2.2 mph

Today
High -- | Low -- °F
--% Chance of Precip.
Yesterday
High -- | Low -- °F
Precip. -- in
6:17 AM 7:25 PM
Waning Gibbous, 76% visible
Pressure 29.95 in
Visibility 10.0 miles
Clouds Clear
Heat Index 89 °F
Dew Point 70 °F
Humidity 63%
Rainfall 0.00 in
Snow Depth Not available.
UV 0 out of 12
Pollen 10.60 out of 12
Air Quality Not available.
Flu Activity Not available.
METAR KMWC 022345Z 24007KT 10SM SKC 28/18 A2995
Pressure 29.95 in
Visibility 10.0 miles
Clouds Clear
Heat Index 89 °F
Dew Point 70 °F
Humidity 63%
Rainfall 0.00 in
Snow Depth Not available.
UV 0 out of 12
Pollen 10.60 out of 12
Air Quality Not available.
Flu Activity Not available.
METAR KMWC 022345Z 24007KT 10SM SKC 28/18 A2995

10-Day Weather Forecast

×

Almanac

Astronomy

Sep. 02, 2015 Rise Set
Actual Time
Civil Twilight
Nautical Twilight
Astronomical Twilight
Moon
Length of Visible Light
Length of Day
Tomorrow will be .
, % of the Moon is Illuminated

Today's Extremes

State Highs State Lows

Community

WunderPhotos

Upload Photos

1,851,841 photos uploaded!

WunderBlogs® & News

Nearby

Air Quality

  Air Quality AQ Index Pollutant
Not available.

Snow Depth

Station Depth Elevation

Earthquake Activity

City Distance Mag. Time & Date
Minimum magnitude displayed is 2.5.

Coastal Water Temperatures

Place Temperature

Stations

Nearby Weather Stations

Station Location Temp. Windchill Dew Point Humidity Wind Precip. Elev Updated Type